createdAt,value
2022-08-31T00:01:55.022Z,11.47
2022-08-31T00:07:17.324Z,11.50
2022-08-31T00:12:40.670Z,11.53
2022-08-31T00:18:05.996Z,11.54
2022-08-31T00:23:30.257Z,11.56
2022-08-31T00:28:53.583Z,11.59
2022-08-31T00:34:15.834Z,11.59
2022-08-31T00:39:38.371Z,11.56
2022-08-31T00:45:00.590Z,11.56
2022-08-31T00:50:26.319Z,11.63
2022-08-31T00:55:50.638Z,11.66
2022-08-31T01:01:13.557Z,11.68
2022-08-31T01:06:38.297Z,11.68
2022-08-31T01:12:02.659Z,11.71
2022-08-31T01:17:25.565Z,11.75
2022-08-31T01:23:11.593Z,11.82
2022-08-31T01:28:35.281Z,11.85
2022-08-31T01:33:58.251Z,11.95
2022-08-31T01:39:23.481Z,12.00
2022-08-31T01:44:46.639Z,12.22
2022-08-31T01:50:08.809Z,12.40
2022-08-31T01:55:31.042Z,12.51
2022-08-31T02:00:54.314Z,12.52
2022-08-31T02:06:21.332Z,12.52
2022-08-31T02:11:43.931Z,12.52
2022-08-31T02:17:06.916Z,12.55
2022-08-31T02:22:30.369Z,12.56
2022-08-31T02:27:52.715Z,12.61
2022-08-31T02:33:15.249Z,12.69
2022-08-31T02:38:38.091Z,12.66
2022-08-31T02:44:00.256Z,12.65
2022-08-31T02:49:22.515Z,12.72
2022-08-31T02:54:46.382Z,12.76
2022-08-31T03:00:08.618Z,12.81
2022-08-31T03:05:31.501Z,12.82
2022-08-31T03:10:54.235Z,12.88
2022-08-31T03:16:19.599Z,12.90
2022-08-31T03:21:42.251Z,12.89
2022-08-31T03:27:04.991Z,12.85
2022-08-31T03:32:28.812Z,12.82
2022-08-31T03:38:02.688Z,12.89
2022-08-31T03:43:25.842Z,12.75
2022-08-31T03:48:48.036Z,12.70
2022-08-31T03:54:10.340Z,12.67
2022-08-31T03:59:32.872Z,12.65
2022-08-31T04:04:58.566Z,12.54
2022-08-31T04:10:23.302Z,12.46
2022-08-31T04:15:47.172Z,12.39
2022-08-31T04:21:09.530Z,12.35
2022-08-31T04:26:43.822Z,12.29
2022-08-31T04:32:06.663Z,12.23
2022-08-31T04:37:34.403Z,12.17
2022-08-31T04:42:58.428Z,12.21
2022-08-31T04:48:21.478Z,12.11
2022-08-31T04:53:44.680Z,12.08
2022-08-31T04:59:11.036Z,12.08
2022-08-31T05:04:34.774Z,12.03
2022-08-31T05:09:56.995Z,12.03
2022-08-31T05:15:19.754Z,12.06
2022-08-31T05:20:41.969Z,12.23
2022-08-31T05:26:04.543Z,12.43
2022-08-31T05:31:28.393Z,12.70
2022-08-31T05:36:53.388Z,12.98
2022-08-31T05:42:15.722Z,13.28
2022-08-31T05:47:38.370Z,13.54
2022-08-31T05:53:00.648Z,13.69
2022-08-31T05:58:23.098Z,13.86
2022-08-31T06:03:45.264Z,14.06
2022-08-31T06:09:08.457Z,14.28
2022-08-31T06:14:31.542Z,14.50
2022-08-31T06:19:54.070Z,14.67
2022-08-31T06:25:19.364Z,14.92
2022-08-31T06:30:55.604Z,15.13
2022-08-31T06:36:20.691Z,15.40
2022-08-31T06:41:49.361Z,15.62
2022-08-31T06:47:12.591Z,15.81
2022-08-31T06:52:38.910Z,15.96
2022-08-31T06:58:00.286Z,16.10
2022-08-31T07:03:26.995Z,16.25
2022-08-31T07:14:27.423Z,16.77
2022-08-31T07:19:50.863Z,16.79
2022-08-31T07:25:14.963Z,16.94
2022-08-31T07:30:40.087Z,17.05
2022-08-31T07:36:02.370Z,17.12
2022-08-31T07:41:45.042Z,17.30
2022-08-31T07:47:09.176Z,17.41
2022-08-31T07:52:36.462Z,17.52
2022-08-31T07:58:00.498Z,17.74
2022-08-31T08:03:23.469Z,17.84
2022-08-31T08:09:01.641Z,18.00
2022-08-31T08:14:12.878Z,18.07
2022-08-31T08:19:35.360Z,18.25
2022-08-31T08:24:59.392Z,18.55
2022-08-31T08:30:26.117Z,18.71
2022-08-31T08:35:49.553Z,18.93
2022-08-31T08:41:14.757Z,18.90
2022-08-31T08:46:50.928Z,19.00
2022-08-31T08:52:21.361Z,18.85
2022-08-31T08:57:52.917Z,18.68
2022-08-31T09:03:42.998Z,19.03
2022-08-31T09:09:42.189Z,18.95
2022-08-31T09:15:18.164Z,18.90
2022-08-31T09:20:41.446Z,18.98
2022-08-31T09:26:09.994Z,18.99
2022-08-31T09:31:51.113Z,19.15
2022-08-31T09:43:17.884Z,19.52
2022-08-31T09:49:06.056Z,20.44
2022-08-31T09:54:54.258Z,20.74
2022-08-31T10:00:21.587Z,19.89
2022-08-31T10:05:55.530Z,19.15
2022-08-31T10:11:23.568Z,19.45
2022-08-31T10:17:02.997Z,20.23
2022-08-31T10:22:42.989Z,20.22
2022-08-31T10:28:11.939Z,19.79
2022-08-31T10:34:11.648Z,18.89
2022-08-31T10:39:53.869Z,18.89
2022-08-31T10:45:26.775Z,18.88
2022-08-31T10:51:17.777Z,18.75
2022-08-31T10:56:38.203Z,18.93
2022-08-31T11:02:10.671Z,19.28
2022-08-31T11:07:52.371Z,19.34
2022-08-31T11:13:31.477Z,19.57
2022-08-31T11:19:20.487Z,19.98
2022-08-31T11:25:26.690Z,20.18
2022-08-31T11:30:52.353Z,20.41
2022-08-31T11:36:19.988Z,20.64
2022-08-31T11:41:58.511Z,20.58
2022-08-31T11:47:43.610Z,20.86
2022-08-31T11:53:07.501Z,21.75
2022-08-31T11:58:42.142Z,23.47
2022-08-31T12:04:20.511Z,25.02
2022-08-31T12:09:54.625Z,23.19
2022-08-31T12:15:55.414Z,21.32
2022-08-31T12:21:32.812Z,22.49
2022-08-31T12:27:19.319Z,24.44
2022-08-31T12:32:49.289Z,24.46
2022-08-31T12:38:26.648Z,25.35
2022-08-31T12:44:00.606Z,25.38
2022-08-31T12:49:47.590Z,24.34
2022-08-31T12:55:23.962Z,22.77
2022-08-31T13:00:49.549Z,20.84
2022-08-31T13:06:24.215Z,20.20
2022-08-31T13:11:59.623Z,19.63
2022-08-31T13:17:32.951Z,19.77
2022-08-31T13:23:03.703Z,19.69
2022-08-31T13:28:34.353Z,19.74
2022-08-31T13:34:00.617Z,20.04
2022-08-31T13:39:42.820Z,20.23
2022-08-31T13:45:32.295Z,20.22
2022-08-31T13:50:58.070Z,20.49
2022-08-31T13:56:56.291Z,21.83
2022-08-31T14:02:36.468Z,22.86
2022-08-31T14:08:06.803Z,22.83
2022-08-31T14:13:35.878Z,24.34
2022-08-31T14:19:00.294Z,24.42
2022-08-31T14:24:25.219Z,23.63
2022-08-31T14:29:47.585Z,22.52
2022-08-31T14:35:11.974Z,22.14
2022-08-31T14:40:35.758Z,22.57
2022-08-31T14:45:58.054Z,24.51
2022-08-31T14:51:47.323Z,25.10
2022-08-31T14:57:47.010Z,24.47
2022-08-31T15:03:12.613Z,23.84
2022-08-31T15:08:41.309Z,22.20
2022-08-31T15:14:14.485Z,21.31
2022-08-31T15:25:38.184Z,20.28
2022-08-31T15:31:22.369Z,19.92
2022-08-31T15:36:56.289Z,19.56
2022-08-31T15:42:26.483Z,19.52
2022-08-31T15:48:10.925Z,19.51
2022-08-31T15:54:21.206Z,19.44
2022-08-31T15:59:35.488Z,19.30
2022-08-31T16:04:58.517Z,19.11
2022-08-31T16:10:24.673Z,18.99
2022-08-31T16:15:51.574Z,19.07
2022-08-31T16:21:23.363Z,19.00
2022-08-31T16:26:54.881Z,18.94
2022-08-31T16:32:18.653Z,18.97
2022-08-31T16:37:41.283Z,18.73
2022-08-31T16:43:03.496Z,18.76
2022-08-31T16:48:44.352Z,18.49
2022-08-31T16:54:12.612Z,18.42
2022-08-31T16:59:36.650Z,18.48
2022-08-31T17:05:03.320Z,18.61
2022-08-31T17:10:26.619Z,18.39
2022-08-31T17:15:49.202Z,18.02
2022-08-31T17:21:13.012Z,17.26
2022-08-31T17:26:40.434Z,16.84
2022-08-31T17:32:06.311Z,16.76
2022-08-31T17:37:36.859Z,17.04
2022-08-31T17:43:09.312Z,17.24
2022-08-31T17:48:31.725Z,17.08
2022-08-31T17:53:58.359Z,16.88
2022-08-31T17:59:30.131Z,16.99
2022-08-31T18:04:54.160Z,17.01
2022-08-31T18:10:19.643Z,16.91
2022-08-31T18:15:43.935Z,16.73
2022-08-31T18:21:10.169Z,16.46
2022-08-31T18:26:36.997Z,16.15
2022-08-31T18:32:05.759Z,15.82
2022-08-31T18:37:32.120Z,15.51
2022-08-31T18:43:13.231Z,15.55
2022-08-31T18:48:37.708Z,15.48
2022-08-31T18:54:02.523Z,15.28
2022-08-31T18:59:27.354Z,15.02
2022-08-31T19:04:52.337Z,14.80
2022-08-31T19:10:16.813Z,14.79
2022-08-31T19:15:40.326Z,14.81
2022-08-31T19:21:03.217Z,14.62
2022-08-31T19:26:46.973Z,14.40
2022-08-31T19:32:11.285Z,14.12
2022-08-31T19:37:33.931Z,13.93
2022-08-31T19:43:41.518Z,13.93
2022-08-31T19:48:23.239Z,14.00
2022-08-31T19:53:45.900Z,14.23
2022-08-31T19:59:10.648Z,14.33
2022-08-31T20:04:35.369Z,14.29
2022-08-31T20:09:58.068Z,14.15
2022-08-31T20:15:21.261Z,14.06
2022-08-31T20:20:49.015Z,13.90
2022-08-31T20:26:12.913Z,13.88
2022-08-31T20:31:37.481Z,13.78
2022-08-31T20:37:01.384Z,13.67
2022-08-31T20:42:25.538Z,13.47
2022-08-31T20:53:42.220Z,13.37
2022-08-31T20:58:54.955Z,13.11
2022-08-31T21:04:19.146Z,12.98
2022-08-31T21:09:43.172Z,12.90
2022-08-31T21:15:06.147Z,12.77
2022-08-31T21:20:29.715Z,12.65
2022-08-31T21:25:52.932Z,12.66
2022-08-31T21:31:29.338Z,12.65
2022-08-31T21:36:54.300Z,12.57
2022-08-31T21:42:17.266Z,12.53
2022-08-31T21:47:39.547Z,12.49
2022-08-31T21:53:05.661Z,12.36
2022-08-31T21:58:28.692Z,12.21
2022-08-31T22:03:54.561Z,12.08
2022-08-31T22:09:26.464Z,11.95
2022-08-31T22:14:51.274Z,11.97
2022-08-31T22:20:14.877Z,12.00
2022-08-31T22:25:37.120Z,11.93
2022-08-31T22:31:03.258Z,11.85
2022-08-31T22:36:34.819Z,11.80
2022-08-31T22:41:58.697Z,11.73
2022-08-31T22:47:22.035Z,11.61
2022-08-31T22:52:45.061Z,11.63
2022-08-31T22:58:07.274Z,11.64
2022-08-31T23:03:31.417Z,11.57
2022-08-31T23:08:54.323Z,11.45
2022-08-31T23:14:17.720Z,11.42
2022-08-31T23:19:46.229Z,11.37
2022-08-31T23:25:11.005Z,11.34
2022-08-31T23:30:35.707Z,11.24
2022-08-31T23:35:57.954Z,11.19
2022-08-31T23:41:21.216Z,11.11
2022-08-31T23:46:46.569Z,11.07
2022-08-31T23:52:08.804Z,11.06
2022-08-31T23:57:33.770Z,10.88
